sensor_id;sensor_type;location;lat;lon;timestamp;temperature;humidity
2783;DHT22;1399;47.072;15.452;2023-11-21T00:00:22;12.20;60.80
2783;DHT22;1399;47.072;15.452;2023-11-21T00:02:48;12.20;60.80
2783;DHT22;1399;47.072;15.452;2023-11-21T00:05:14;12.20;60.90
2783;DHT22;1399;47.072;15.452;2023-11-21T00:07:41;12.20;61.00
2783;DHT22;1399;47.072;15.452;2023-11-21T00:10:08;12.20;61.00
2783;DHT22;1399;47.072;15.452;2023-11-21T00:12:34;12.20;61.10
2783;DHT22;1399;47.072;15.452;2023-11-21T00:15:00;12.20;61.10
2783;DHT22;1399;47.072;15.452;2023-11-21T00:17:27;12.20;61.10
2783;DHT22;1399;47.072;15.452;2023-11-21T00:19:53;12.20;61.20
2783;DHT22;1399;47.072;15.452;2023-11-21T00:22:19;12.20;61.20
2783;DHT22;1399;47.072;15.452;2023-11-21T00:24:46;12.20;61.20
2783;DHT22;1399;47.072;15.452;2023-11-21T00:27:12;12.20;61.30
2783;DHT22;1399;47.072;15.452;2023-11-21T00:29:38;12.20;61.30
2783;DHT22;1399;47.072;15.452;2023-11-21T00:32:05;12.20;61.30
2783;DHT22;1399;47.072;15.452;2023-11-21T00:34:31;12.20;61.40
2783;DHT22;1399;47.072;15.452;2023-11-21T00:36:58;12.30;61.50
2783;DHT22;1399;47.072;15.452;2023-11-21T00:39:23;12.30;62.50
2783;DHT22;1399;47.072;15.452;2023-11-21T00:41:50;12.20;61.50
2783;DHT22;1399;47.072;15.452;2023-11-21T00:44:16;12.20;62.40
2783;DHT22;1399;47.072;15.452;2023-11-21T00:46:42;12.30;61.70
2783;DHT22;1399;47.072;15.452;2023-11-21T00:49:08;12.20;61.60
2783;DHT22;1399;47.072;15.452;2023-11-21T00:51:35;12.20;61.60
2783;DHT22;1399;47.072;15.452;2023-11-21T00:54:02;12.30;61.70
2783;DHT22;1399;47.072;15.452;2023-11-21T00:56:28;12.30;61.70
2783;DHT22;1399;47.072;15.452;2023-11-21T00:58:54;12.20;61.70
2783;DHT22;1399;47.072;15.452;2023-11-21T01:01:21;12.20;61.80
2783;DHT22;1399;47.072;15.452;2023-11-21T01:03:50;12.20;61.70
2783;DHT22;1399;47.072;15.452;2023-11-21T01:06:16;12.20;61.80
2783;DHT22;1399;47.072;15.452;2023-11-21T01:08:43;12.20;61.80
2783;DHT22;1399;47.072;15.452;2023-11-21T01:11:09;12.30;62.00
2783;DHT22;1399;47.072;15.452;2023-11-21T01:13:38;12.20;61.90
2783;DHT22;1399;47.072;15.452;2023-11-21T01:16:05;12.20;61.80
2783;DHT22;1399;47.072;15.452;2023-11-21T01:18:35;12.20;61.90
2783;DHT22;1399;47.072;15.452;2023-11-21T01:21:00;12.20;61.90
2783;DHT22;1399;47.072;15.452;2023-11-21T01:23:26;12.20;61.90
2783;DHT22;1399;47.072;15.452;2023-11-21T01:25:55;12.30;61.90
2783;DHT22;1399;47.072;15.452;2023-11-21T01:28:23;12.30;61.90
2783;DHT22;1399;47.072;15.452;2023-11-21T01:30:49;12.20;61.70
2783;DHT22;1399;47.072;15.452;2023-11-21T01:33:16;12.30;61.80
2783;DHT22;1399;47.072;15.452;2023-11-21T01:35:42;12.30;61.80
2783;DHT22;1399;47.072;15.452;2023-11-21T01:38:08;12.30;61.70
2783;DHT22;1399;47.072;15.452;2023-11-21T01:40:35;12.20;61.60
2783;DHT22;1399;47.072;15.452;2023-11-21T01:43:01;12.20;61.60
2783;DHT22;1399;47.072;15.452;2023-11-21T01:45:30;12.20;61.50
2783;DHT22;1399;47.072;15.452;2023-11-21T01:48:00;12.20;61.40
2783;DHT22;1399;47.072;15.452;2023-11-21T01:50:26;12.30;61.50
2783;DHT22;1399;47.072;15.452;2023-11-21T01:52:52;12.30;61.50
2783;DHT22;1399;47.072;15.452;2023-11-21T01:55:19;12.30;61.40
2783;DHT22;1399;47.072;15.452;2023-11-21T01:57:45;12.30;61.40
2783;DHT22;1399;47.072;15.452;2023-11-21T02:00:12;12.30;61.40
2783;DHT22;1399;47.072;15.452;2023-11-21T02:05:15;12.30;61.50
2783;DHT22;1399;47.072;15.452;2023-11-21T02:07:42;12.30;61.50
2783;DHT22;1399;47.072;15.452;2023-11-21T02:10:09;12.30;61.40
2783;DHT22;1399;47.072;15.452;2023-11-21T02:12:35;12.30;61.50
2783;DHT22;1399;47.072;15.452;2023-11-21T02:15:05;12.30;61.50
2783;DHT22;1399;47.072;15.452;2023-11-21T02:17:36;12.30;61.40
2783;DHT22;1399;47.072;15.452;2023-11-21T02:20:02;12.30;61.30
2783;DHT22;1399;47.072;15.452;2023-11-21T02:22:31;12.30;61.30
2783;DHT22;1399;47.072;15.452;2023-11-21T02:24:58;12.30;61.30
2783;DHT22;1399;47.072;15.452;2023-11-21T02:27:24;12.30;61.20
2783;DHT22;1399;47.072;15.452;2023-11-21T02:29:50;12.30;61.20
2783;DHT22;1399;47.072;15.452;2023-11-21T02:32:16;12.30;61.20
2783;DHT22;1399;47.072;15.452;2023-11-21T02:34:44;12.30;61.20
2783;DHT22;1399;47.072;15.452;2023-11-21T02:37:10;12.30;61.20
2783;DHT22;1399;47.072;15.452;2023-11-21T02:39:36;12.30;61.10
2783;DHT22;1399;47.072;15.452;2023-11-21T02:42:03;12.30;61.00
2783;DHT22;1399;47.072;15.452;2023-11-21T02:44:29;12.30;61.00
2783;DHT22;1399;47.072;15.452;2023-11-21T02:46:55;12.30;61.00
2783;DHT22;1399;47.072;15.452;2023-11-21T02:49:23;12.40;61.10
2783;DHT22;1399;47.072;15.452;2023-11-21T02:51:49;12.30;61.00
2783;DHT22;1399;47.072;15.452;2023-11-21T02:54:15;12.30;61.00
2783;DHT22;1399;47.072;15.452;2023-11-21T02:56:42;12.30;60.90
2783;DHT22;1399;47.072;15.452;2023-11-21T02:59:08;12.30;61.00
2783;DHT22;1399;47.072;15.452;2023-11-21T03:01:34;12.30;60.90
2783;DHT22;1399;47.072;15.452;2023-11-21T03:04:00;12.30;60.90
2783;DHT22;1399;47.072;15.452;2023-11-21T03:06:27;12.30;61.00
2783;DHT22;1399;47.072;15.452;2023-11-21T03:08:53;12.30;61.00
2783;DHT22;1399;47.072;15.452;2023-11-21T03:11:19;12.30;61.00
2783;DHT22;1399;47.072;15.452;2023-11-21T03:13:45;12.30;61.00
2783;DHT22;1399;47.072;15.452;2023-11-21T03:16:11;12.30;61.10
2783;DHT22;1399;47.072;15.452;2023-11-21T03:18:38;12.30;61.10
2783;DHT22;1399;47.072;15.452;2023-11-21T03:21:05;12.30;61.20
2783;DHT22;1399;47.072;15.452;2023-11-21T03:23:31;12.30;61.20
2783;DHT22;1399;47.072;15.452;2023-11-21T03:25:57;12.30;61.30
2783;DHT22;1399;47.072;15.452;2023-11-21T03:28:23;12.20;61.20
2783;DHT22;1399;47.072;15.452;2023-11-21T03:30:49;12.30;61.40
2783;DHT22;1399;47.072;15.452;2023-11-21T03:33:15;12.30;61.40
2783;DHT22;1399;47.072;15.452;2023-11-21T03:35:41;12.30;61.40
2783;DHT22;1399;47.072;15.452;2023-11-21T03:38:09;12.30;61.50
2783;DHT22;1399;47.072;15.452;2023-11-21T03:40:35;12.20;61.50
2783;DHT22;1399;47.072;15.452;2023-11-21T03:43:01;12.30;61.60
2783;DHT22;1399;47.072;15.452;2023-11-21T03:45:26;12.30;61.70
2783;DHT22;1399;47.072;15.452;2023-11-21T03:47:52;12.30;61.80
2783;DHT22;1399;47.072;15.452;2023-11-21T03:50:18;12.30;61.90
2783;DHT22;1399;47.072;15.452;2023-11-21T03:52:44;12.30;61.90
2783;DHT22;1399;47.072;15.452;2023-11-21T03:55:10;12.30;61.80
2783;DHT22;1399;47.072;15.452;2023-11-21T03:57:36;12.30;61.90
2783;DHT22;1399;47.072;15.452;2023-11-21T04:00:03;12.30;61.90
2783;DHT22;1399;47.072;15.452;2023-11-21T04:02:29;12.40;62.10
2783;DHT22;1399;47.072;15.452;2023-11-21T04:04:57;12.40;62.20
2783;DHT22;1399;47.072;15.452;2023-11-21T04:07:22;12.40;62.30
2783;DHT22;1399;47.072;15.452;2023-11-21T04:09:48;12.40;62.40
2783;DHT22;1399;47.072;15.452;2023-11-21T04:12:14;12.40;62.50
2783;DHT22;1399;47.072;15.452;2023-11-21T04:14:40;12.40;62.60
2783;DHT22;1399;47.072;15.452;2023-11-21T04:17:06;12.40;62.60
2783;DHT22;1399;47.072;15.452;2023-11-21T04:19:32;12.40;62.60
2783;DHT22;1399;47.072;15.452;2023-11-21T04:21:57;12.40;62.70
2783;DHT22;1399;47.072;15.452;2023-11-21T04:24:23;12.40;62.70
2783;DHT22;1399;47.072;15.452;2023-11-21T04:26:49;12.40;62.70
2783;DHT22;1399;47.072;15.452;2023-11-21T04:29:15;12.40;62.90
2783;DHT22;1399;47.072;15.452;2023-11-21T04:31:41;12.40;63.00
2783;DHT22;1399;47.072;15.452;2023-11-21T04:34:08;12.40;63.30
2783;DHT22;1399;47.072;15.452;2023-11-21T04:36:34;12.40;63.40
2783;DHT22;1399;47.072;15.452;2023-11-21T04:39:03;12.40;63.60
2783;DHT22;1399;47.072;15.452;2023-11-21T04:41:29;12.40;63.80
2783;DHT22;1399;47.072;15.452;2023-11-21T04:43:57;12.40;63.80
2783;DHT22;1399;47.072;15.452;2023-11-21T04:46:24;12.40;63.80
2783;DHT22;1399;47.072;15.452;2023-11-21T04:48:50;12.40;63.70
2783;DHT22;1399;47.072;15.452;2023-11-21T04:51:16;12.40;63.70
2783;DHT22;1399;47.072;15.452;2023-11-21T04:53:41;12.40;63.80
2783;DHT22;1399;47.072;15.452;2023-11-21T04:56:07;12.50;64.00
2783;DHT22;1399;47.072;15.452;2023-11-21T04:58:33;12.50;64.00
2783;DHT22;1399;47.072;15.452;2023-11-21T05:00:59;12.50;64.10
2783;DHT22;1399;47.072;15.452;2023-11-21T05:03:24;12.50;64.10
2783;DHT22;1399;47.072;15.452;2023-11-21T05:05:50;12.50;64.10
2783;DHT22;1399;47.072;15.452;2023-11-21T05:08:16;12.50;64.10
2783;DHT22;1399;47.072;15.452;2023-11-21T05:10:42;12.50;64.30
2783;DHT22;1399;47.072;15.452;2023-11-21T05:13:07;12.50;64.50
2783;DHT22;1399;47.072;15.452;2023-11-21T05:15:36;12.50;64.60
2783;DHT22;1399;47.072;15.452;2023-11-21T05:18:04;12.50;64.70
2783;DHT22;1399;47.072;15.452;2023-11-21T05:20:30;12.50;64.70
2783;DHT22;1399;47.072;15.452;2023-11-21T05:22:56;12.50;65.70
2783;DHT22;1399;47.072;15.452;2023-11-21T05:25:22;12.50;64.90
2783;DHT22;1399;47.072;15.452;2023-11-21T05:27:48;12.50;65.00
2783;DHT22;1399;47.072;15.452;2023-11-21T05:30:14;12.50;65.10
2783;DHT22;1399;47.072;15.452;2023-11-21T05:32:40;12.50;65.30
2783;DHT22;1399;47.072;15.452;2023-11-21T05:35:10;12.50;65.40
2783;DHT22;1399;47.072;15.452;2023-11-21T05:37:41;12.50;65.50
2783;DHT22;1399;47.072;15.452;2023-11-21T05:40:08;12.50;65.60
2783;DHT22;1399;47.072;15.452;2023-11-21T05:42:35;12.50;65.70
2783;DHT22;1399;47.072;15.452;2023-11-21T05:45:02;12.50;65.80
2783;DHT22;1399;47.072;15.452;2023-11-21T05:47:41;12.50;65.90
2783;DHT22;1399;47.072;15.452;2023-11-21T05:50:10;12.50;66.00
2783;DHT22;1399;47.072;15.452;2023-11-21T05:52:38;12.50;66.10
2783;DHT22;1399;47.072;15.452;2023-11-21T05:55:05;12.50;66.10
2783;DHT22;1399;47.072;15.452;2023-11-21T05:57:35;12.50;66.30
2783;DHT22;1399;47.072;15.452;2023-11-21T06:00:10;12.50;66.30
2783;DHT22;1399;47.072;15.452;2023-11-21T06:02:40;12.50;66.40
2783;DHT22;1399;47.072;15.452;2023-11-21T06:05:07;12.50;66.40
2783;DHT22;1399;47.072;15.452;2023-11-21T06:07:34;12.50;66.40
2783;DHT22;1399;47.072;15.452;2023-11-21T06:10:01;12.50;66.60
2783;DHT22;1399;47.072;15.452;2023-11-21T06:12:28;12.50;66.60
2783;DHT22;1399;47.072;15.452;2023-11-21T06:14:54;12.50;66.70
2783;DHT22;1399;47.072;15.452;2023-11-21T06:17:21;12.50;66.90
2783;DHT22;1399;47.072;15.452;2023-11-21T06:19:47;12.50;67.00
2783;DHT22;1399;47.072;15.452;2023-11-21T06:22:13;12.50;67.10
2783;DHT22;1399;47.072;15.452;2023-11-21T06:24:38;12.50;67.10
2783;DHT22;1399;47.072;15.452;2023-11-21T06:27:06;12.50;67.10
2783;DHT22;1399;47.072;15.452;2023-11-21T06:29:32;12.60;67.30
2783;DHT22;1399;47.072;15.452;2023-11-21T06:31:57;12.50;67.10
2783;DHT22;1399;47.072;15.452;2023-11-21T06:34:24;12.60;67.40
2783;DHT22;1399;47.072;15.452;2023-11-21T06:36:49;12.50;68.20
2783;DHT22;1399;47.072;15.452;2023-11-21T06:39:15;12.60;67.40
2783;DHT22;1399;47.072;15.452;2023-11-21T06:41:43;12.60;67.50
2783;DHT22;1399;47.072;15.452;2023-11-21T06:44:08;12.60;67.50
2783;DHT22;1399;47.072;15.452;2023-11-21T06:46:34;12.60;67.50
2783;DHT22;1399;47.072;15.452;2023-11-21T06:49:00;12.60;67.50
2783;DHT22;1399;47.072;15.452;2023-11-21T06:51:26;12.60;67.60
2783;DHT22;1399;47.072;15.452;2023-11-21T06:53:51;12.60;67.70
2783;DHT22;1399;47.072;15.452;2023-11-21T06:56:18;12.60;67.80
2783;DHT22;1399;47.072;15.452;2023-11-21T06:58:46;12.60;67.80
2783;DHT22;1399;47.072;15.452;2023-11-21T07:01:15;12.60;67.80
2783;DHT22;1399;47.072;15.452;2023-11-21T07:03:41;12.60;67.80
2783;DHT22;1399;47.072;15.452;2023-11-21T07:06:07;12.60;67.90
2783;DHT22;1399;47.072;15.452;2023-11-21T07:08:33;12.60;67.90
2783;DHT22;1399;47.072;15.452;2023-11-21T07:10:59;12.60;68.00
2783;DHT22;1399;47.072;15.452;2023-11-21T07:13:25;12.60;68.20
2783;DHT22;1399;47.072;15.452;2023-11-21T07:15:51;12.60;68.30
2783;DHT22;1399;47.072;15.452;2023-11-21T07:18:17;12.60;68.30
2783;DHT22;1399;47.072;15.452;2023-11-21T07:20:43;12.60;69.20
2783;DHT22;1399;47.072;15.452;2023-11-21T07:23:09;12.70;68.30
2783;DHT22;1399;47.072;15.452;2023-11-21T07:25:35;12.70;68.30
2783;DHT22;1399;47.072;15.452;2023-11-21T07:28:01;12.70;68.30
2783;DHT22;1399;47.072;15.452;2023-11-21T07:30:27;12.70;68.50
2783;DHT22;1399;47.072;15.452;2023-11-21T07:32:53;12.70;68.50
2783;DHT22;1399;47.072;15.452;2023-11-21T07:35:19;12.70;68.60
2783;DHT22;1399;47.072;15.452;2023-11-21T07:37:44;12.70;68.70
2783;DHT22;1399;47.072;15.452;2023-11-21T07:40:10;12.70;68.70
2783;DHT22;1399;47.072;15.452;2023-11-21T07:42:37;12.70;68.70
2783;DHT22;1399;47.072;15.452;2023-11-21T07:45:04;12.70;68.80
2783;DHT22;1399;47.072;15.452;2023-11-21T07:47:30;12.70;68.80
2783;DHT22;1399;47.072;15.452;2023-11-21T07:50:00;12.80;68.90
2783;DHT22;1399;47.072;15.452;2023-11-21T07:52:25;12.80;69.10
2783;DHT22;1399;47.072;15.452;2023-11-21T07:54:51;12.80;69.20
2783;DHT22;1399;47.072;15.452;2023-11-21T07:57:17;12.90;69.30
2783;DHT22;1399;47.072;15.452;2023-11-21T07:59:42;12.90;69.20
2783;DHT22;1399;47.072;15.452;2023-11-21T08:02:08;12.90;69.10
2783;DHT22;1399;47.072;15.452;2023-11-21T08:04:34;13.00;69.20
2783;DHT22;1399;47.072;15.452;2023-11-21T08:07:01;13.00;69.10
2783;DHT22;1399;47.072;15.452;2023-11-21T08:09:27;13.00;69.20
2783;DHT22;1399;47.072;15.452;2023-11-21T08:11:53;13.00;69.20
2783;DHT22;1399;47.072;15.452;2023-11-21T08:14:19;13.00;69.20
2783;DHT22;1399;47.072;15.452;2023-11-21T08:16:45;13.00;69.20
2783;DHT22;1399;47.072;15.452;2023-11-21T08:19:11;13.00;69.20
2783;DHT22;1399;47.072;15.452;2023-11-21T08:21:37;13.00;69.30
2783;DHT22;1399;47.072;15.452;2023-11-21T08:24:08;13.10;69.50
2783;DHT22;1399;47.072;15.452;2023-11-21T08:26:36;13.10;69.50
2783;DHT22;1399;47.072;15.452;2023-11-21T08:29:02;13.10;69.50
2783;DHT22;1399;47.072;15.452;2023-11-21T08:31:28;13.10;69.40
2783;DHT22;1399;47.072;15.452;2023-11-21T08:33:54;13.10;69.50
2783;DHT22;1399;47.072;15.452;2023-11-21T08:36:23;13.20;69.70
2783;DHT22;1399;47.072;15.452;2023-11-21T08:38:50;13.20;69.70
2783;DHT22;1399;47.072;15.452;2023-11-21T08:41:17;13.20;69.70
2783;DHT22;1399;47.072;15.452;2023-11-21T08:43:49;13.20;70.60
2783;DHT22;1399;47.072;15.452;2023-11-21T08:46:15;13.20;69.80
2783;DHT22;1399;47.072;15.452;2023-11-21T08:48:42;13.20;69.90
2783;DHT22;1399;47.072;15.452;2023-11-21T08:51:10;13.20;69.90
2783;DHT22;1399;47.072;15.452;2023-11-21T08:53:37;13.20;70.10
2783;DHT22;1399;47.072;15.452;2023-11-21T08:56:03;13.30;70.20
2783;DHT22;1399;47.072;15.452;2023-11-21T08:58:30;13.30;70.10
2783;DHT22;1399;47.072;15.452;2023-11-21T09:00:57;13.30;70.10
2783;DHT22;1399;47.072;15.452;2023-11-21T09:03:23;13.40;70.20
2783;DHT22;1399;47.072;15.452;2023-11-21T09:05:49;13.40;70.20
2783;DHT22;1399;47.072;15.452;2023-11-21T09:08:14;13.40;70.10
2783;DHT22;1399;47.072;15.452;2023-11-21T09:10:40;13.40;70.10
2783;DHT22;1399;47.072;15.452;2023-11-21T09:13:08;13.50;70.20
2783;DHT22;1399;47.072;15.452;2023-11-21T09:15:34;13.50;70.10
2783;DHT22;1399;47.072;15.452;2023-11-21T09:18:00;13.50;70.10
2783;DHT22;1399;47.072;15.452;2023-11-21T09:20:27;13.60;70.20
2783;DHT22;1399;47.072;15.452;2023-11-21T09:22:53;13.60;70.10
2783;DHT22;1399;47.072;15.452;2023-11-21T09:25:21;13.60;70.10
2783;DHT22;1399;47.072;15.452;2023-11-21T09:27:46;13.70;70.10
2783;DHT22;1399;47.072;15.452;2023-11-21T09:30:12;13.70;70.00
2783;DHT22;1399;47.072;15.452;2023-11-21T09:32:39;13.70;70.00
2783;DHT22;1399;47.072;15.452;2023-11-21T09:35:06;13.80;69.90
2783;DHT22;1399;47.072;15.452;2023-11-21T09:37:34;13.80;69.90
2783;DHT22;1399;47.072;15.452;2023-11-21T09:40:03;13.70;69.80
2783;DHT22;1399;47.072;15.452;2023-11-21T09:42:35;13.80;69.90
2783;DHT22;1399;47.072;15.452;2023-11-21T09:45:30;13.70;69.80
2783;DHT22;1399;47.072;15.452;2023-11-21T09:47:59;13.80;70.00
2783;DHT22;1399;47.072;15.452;2023-11-21T09:50:26;13.80;70.00
2783;DHT22;1399;47.072;15.452;2023-11-21T09:53:03;13.80;70.00
2783;DHT22;1399;47.072;15.452;2023-11-21T09:55:34;13.80;70.00
2783;DHT22;1399;47.072;15.452;2023-11-21T09:58:04;13.80;70.00
2783;DHT22;1399;47.072;15.452;2023-11-21T10:00:33;13.80;70.00
2783;DHT22;1399;47.072;15.452;2023-11-21T10:02:59;13.80;69.90
2783;DHT22;1399;47.072;15.452;2023-11-21T10:05:25;13.90;70.00
2783;DHT22;1399;47.072;15.452;2023-11-21T10:07:52;13.90;69.80
2783;DHT22;1399;47.072;15.452;2023-11-21T10:10:20;13.90;69.80
2783;DHT22;1399;47.072;15.452;2023-11-21T10:12:49;13.90;69.70
2783;DHT22;1399;47.072;15.452;2023-11-21T10:15:21;13.90;69.70
2783;DHT22;1399;47.072;15.452;2023-11-21T10:17:49;14.00;69.80
2783;DHT22;1399;47.072;15.452;2023-11-21T10:20:16;13.90;69.70
2783;DHT22;1399;47.072;15.452;2023-11-21T10:22:43;14.00;69.80
2783;DHT22;1399;47.072;15.452;2023-11-21T10:25:10;13.90;69.70
2783;DHT22;1399;47.072;15.452;2023-11-21T10:27:37;13.90;69.80
2783;DHT22;1399;47.072;15.452;2023-11-21T10:30:05;14.00;69.90
2783;DHT22;1399;47.072;15.452;2023-11-21T10:32:31;14.00;69.80
2783;DHT22;1399;47.072;15.452;2023-11-21T10:34:59;14.00;69.70
2783;DHT22;1399;47.072;15.452;2023-11-21T10:37:26;14.00;69.70
2783;DHT22;1399;47.072;15.452;2023-11-21T10:39:58;14.00;69.70
2783;DHT22;1399;47.072;15.452;2023-11-21T10:42:24;14.00;69.70
2783;DHT22;1399;47.072;15.452;2023-11-21T10:44:50;14.00;69.60
2783;DHT22;1399;47.072;15.452;2023-11-21T10:47:16;14.00;69.50
2783;DHT22;1399;47.072;15.452;2023-11-21T10:49:44;14.10;69.50
2783;DHT22;1399;47.072;15.452;2023-11-21T10:52:13;14.10;69.40
2783;DHT22;1399;47.072;15.452;2023-11-21T10:54:43;14.10;69.40
2783;DHT22;1399;47.072;15.452;2023-11-21T10:57:10;14.10;69.30
2783;DHT22;1399;47.072;15.452;2023-11-21T10:59:36;14.10;69.20
2783;DHT22;1399;47.072;15.452;2023-11-21T11:02:14;14.20;69.20
2783;DHT22;1399;47.072;15.452;2023-11-21T11:04:48;14.20;69.20
2783;DHT22;1399;47.072;15.452;2023-11-21T11:07:14;14.20;69.10
2783;DHT22;1399;47.072;15.452;2023-11-21T11:09:42;14.20;69.00
2783;DHT22;1399;47.072;15.452;2023-11-21T11:12:08;14.20;69.10
2783;DHT22;1399;47.072;15.452;2023-11-21T11:14:35;14.20;69.00
2783;DHT22;1399;47.072;15.452;2023-11-21T11:17:02;14.20;69.00
2783;DHT22;1399;47.072;15.452;2023-11-21T11:19:31;14.20;68.90
2783;DHT22;1399;47.072;15.452;2023-11-21T11:22:07;14.20;68.90
2783;DHT22;1399;47.072;15.452;2023-11-21T11:28:01;14.20;68.70
2783;DHT22;1399;47.072;15.452;2023-11-21T11:33:29;14.30;68.60
2783;DHT22;1399;47.072;15.452;2023-11-21T11:36:16;14.30;68.50
2783;DHT22;1399;47.072;15.452;2023-11-21T11:38:46;14.30;68.50
2783;DHT22;1399;47.072;15.452;2023-11-21T11:41:12;14.30;68.40
2783;DHT22;1399;47.072;15.452;2023-11-21T11:43:38;14.30;68.40
2783;DHT22;1399;47.072;15.452;2023-11-21T11:46:10;14.30;68.30
2783;DHT22;1399;47.072;15.452;2023-11-21T11:48:40;14.30;68.20
2783;DHT22;1399;47.072;15.452;2023-11-21T11:51:13;14.30;68.20
2783;DHT22;1399;47.072;15.452;2023-11-21T11:53:48;14.30;68.00
2783;DHT22;1399;47.072;15.452;2023-11-21T11:58:54;14.30;67.90
2783;DHT22;1399;47.072;15.452;2023-11-21T12:01:21;14.30;67.90
2783;DHT22;1399;47.072;15.452;2023-11-21T12:06:51;14.40;68.00
2783;DHT22;1399;47.072;15.452;2023-11-21T12:09:19;14.40;67.90
2783;DHT22;1399;47.072;15.452;2023-11-21T12:11:48;14.40;67.80
2783;DHT22;1399;47.072;15.452;2023-11-21T12:14:15;14.40;67.80
2783;DHT22;1399;47.072;15.452;2023-11-21T12:16:41;14.40;67.80
2783;DHT22;1399;47.072;15.452;2023-11-21T12:19:09;14.40;67.70
2783;DHT22;1399;47.072;15.452;2023-11-21T12:21:36;14.40;67.70
2783;DHT22;1399;47.072;15.452;2023-11-21T12:24:02;14.40;67.60
2783;DHT22;1399;47.072;15.452;2023-11-21T12:26:28;14.50;67.60
2783;DHT22;1399;47.072;15.452;2023-11-21T12:28:54;14.50;67.50
2783;DHT22;1399;47.072;15.452;2023-11-21T12:31:24;14.50;67.40
2783;DHT22;1399;47.072;15.452;2023-11-21T12:33:50;14.50;67.40
2783;DHT22;1399;47.072;15.452;2023-11-21T12:36:16;14.50;67.40
2783;DHT22;1399;47.072;15.452;2023-11-21T12:38:42;14.50;67.40
2783;DHT22;1399;47.072;15.452;2023-11-21T12:41:10;14.50;67.40
2783;DHT22;1399;47.072;15.452;2023-11-21T12:43:36;14.50;67.30
2783;DHT22;1399;47.072;15.452;2023-11-21T12:46:10;14.50;67.30
2783;DHT22;1399;47.072;15.452;2023-11-21T12:48:44;14.50;67.20
2783;DHT22;1399;47.072;15.452;2023-11-21T12:51:10;14.50;67.10
2783;DHT22;1399;47.072;15.452;2023-11-21T12:53:38;14.50;67.10
2783;DHT22;1399;47.072;15.452;2023-11-21T12:56:09;14.50;67.10
2783;DHT22;1399;47.072;15.452;2023-11-21T12:58:38;14.50;67.10
2783;DHT22;1399;47.072;15.452;2023-11-21T13:01:07;14.50;67.30
2783;DHT22;1399;47.072;15.452;2023-11-21T13:03:46;14.50;67.20
2783;DHT22;1399;47.072;15.452;2023-11-21T13:06:14;14.50;67.20
2783;DHT22;1399;47.072;15.452;2023-11-21T13:08:41;14.50;67.20
2783;DHT22;1399;47.072;15.452;2023-11-21T13:11:10;14.50;67.20
2783;DHT22;1399;47.072;15.452;2023-11-21T13:13:36;14.50;67.20
2783;DHT22;1399;47.072;15.452;2023-11-21T13:16:04;14.50;67.30
2783;DHT22;1399;47.072;15.452;2023-11-21T13:18:30;14.50;67.40
2783;DHT22;1399;47.072;15.452;2023-11-21T13:20:58;14.50;67.40
2783;DHT22;1399;47.072;15.452;2023-11-21T13:23:25;14.50;67.40
2783;DHT22;1399;47.072;15.452;2023-11-21T13:25:52;14.50;67.50
2783;DHT22;1399;47.072;15.452;2023-11-21T13:28:18;14.50;67.50
2783;DHT22;1399;47.072;15.452;2023-11-21T13:30:46;14.50;67.50
2783;DHT22;1399;47.072;15.452;2023-11-21T13:33:13;14.50;67.50
2783;DHT22;1399;47.072;15.452;2023-11-21T13:35:44;14.50;67.50
2783;DHT22;1399;47.072;15.452;2023-11-21T13:38:15;14.50;67.60
2783;DHT22;1399;47.072;15.452;2023-11-21T13:40:49;14.50;67.50
2783;DHT22;1399;47.072;15.452;2023-11-21T13:43:16;14.50;67.50
2783;DHT22;1399;47.072;15.452;2023-11-21T13:45:44;14.50;67.50
2783;DHT22;1399;47.072;15.452;2023-11-21T13:48:12;14.50;67.60
2783;DHT22;1399;47.072;15.452;2023-11-21T13:50:46;14.50;67.50
2783;DHT22;1399;47.072;15.452;2023-11-21T13:53:21;14.50;67.60
2783;DHT22;1399;47.072;15.452;2023-11-21T13:55:54;14.50;67.60
2783;DHT22;1399;47.072;15.452;2023-11-21T13:58:21;14.50;67.50
2783;DHT22;1399;47.072;15.452;2023-11-21T14:01:02;14.50;67.60
2783;DHT22;1399;47.072;15.452;2023-11-21T14:03:31;14.50;67.60
2783;DHT22;1399;47.072;15.452;2023-11-21T14:06:10;14.50;67.60
2783;DHT22;1399;47.072;15.452;2023-11-21T14:08:41;14.50;67.70
2783;DHT22;1399;47.072;15.452;2023-11-21T14:11:08;14.50;67.80
2783;DHT22;1399;47.072;15.452;2023-11-21T14:13:36;14.40;67.60
2783;DHT22;1399;47.072;15.452;2023-11-21T14:16:03;14.40;67.70
2783;DHT22;1399;47.072;15.452;2023-11-21T14:18:32;14.40;67.90
2783;DHT22;1399;47.072;15.452;2023-11-21T14:21:16;14.40;67.90
2783;DHT22;1399;47.072;15.452;2023-11-21T14:23:42;14.40;67.90
2783;DHT22;1399;47.072;15.452;2023-11-21T14:26:08;14.40;67.90
2783;DHT22;1399;47.072;15.452;2023-11-21T14:28:34;14.30;67.90
2783;DHT22;1399;47.072;15.452;2023-11-21T14:31:01;14.40;68.00
2783;DHT22;1399;47.072;15.452;2023-11-21T14:33:28;14.40;68.00
2783;DHT22;1399;47.072;15.452;2023-11-21T14:35:54;14.30;67.90
2783;DHT22;1399;47.072;15.452;2023-11-21T14:38:20;14.30;67.90
2783;DHT22;1399;47.072;15.452;2023-11-21T14:40:46;14.30;68.00
2783;DHT22;1399;47.072;15.452;2023-11-21T14:43:13;14.30;68.00
2783;DHT22;1399;47.072;15.452;2023-11-21T14:45:39;14.20;68.00
2783;DHT22;1399;47.072;15.452;2023-11-21T14:48:04;14.30;68.10
2783;DHT22;1399;47.072;15.452;2023-11-21T14:50:30;14.20;68.10
2783;DHT22;1399;47.072;15.452;2023-11-21T14:53:15;14.20;68.10
2783;DHT22;1399;47.072;15.452;2023-11-21T14:55:41;14.20;68.10
2783;DHT22;1399;47.072;15.452;2023-11-21T14:58:07;14.20;68.10
2783;DHT22;1399;47.072;15.452;2023-11-21T15:00:38;14.20;68.20
2783;DHT22;1399;47.072;15.452;2023-11-21T15:03:11;14.20;68.20
2783;DHT22;1399;47.072;15.452;2023-11-21T15:06:01;14.10;68.10
2783;DHT22;1399;47.072;15.452;2023-11-21T15:08:50;14.10;68.10
2783;DHT22;1399;47.072;15.452;2023-11-21T15:11:35;14.10;68.20
2783;DHT22;1399;47.072;15.452;2023-11-21T15:14:03;14.10;68.20
2783;DHT22;1399;47.072;15.452;2023-11-21T15:16:35;14.00;68.20
2783;DHT22;1399;47.072;15.452;2023-11-21T15:19:11;14.00;68.20
2783;DHT22;1399;47.072;15.452;2023-11-21T15:21:46;14.00;68.20
2783;DHT22;1399;47.072;15.452;2023-11-21T15:24:12;14.00;68.30
2783;DHT22;1399;47.072;15.452;2023-11-21T15:26:38;14.00;68.40
2783;DHT22;1399;47.072;15.452;2023-11-21T15:29:04;14.00;68.40
2783;DHT22;1399;47.072;15.452;2023-11-21T15:31:30;13.90;68.30
2783;DHT22;1399;47.072;15.452;2023-11-21T15:33:56;14.00;68.40
2783;DHT22;1399;47.072;15.452;2023-11-21T15:36:26;13.90;68.40
2783;DHT22;1399;47.072;15.452;2023-11-21T15:38:52;13.90;68.50
2783;DHT22;1399;47.072;15.452;2023-11-21T15:41:19;13.90;68.50
2783;DHT22;1399;47.072;15.452;2023-11-21T15:43:45;13.90;68.60
2783;DHT22;1399;47.072;15.452;2023-11-21T15:46:10;13.90;68.70
2783;DHT22;1399;47.072;15.452;2023-11-21T15:48:37;13.90;68.80
2783;DHT22;1399;47.072;15.452;2023-11-21T15:51:06;13.90;68.80
2783;DHT22;1399;47.072;15.452;2023-11-21T15:53:35;13.90;68.90
2783;DHT22;1399;47.072;15.452;2023-11-21T15:56:04;13.90;69.00
2783;DHT22;1399;47.072;15.452;2023-11-21T15:58:29;13.90;69.00
2783;DHT22;1399;47.072;15.452;2023-11-21T16:00:55;13.90;69.00